sensor_id;sensor_type;location;lat;lon;timestamp;temperature;humidity
7972;DHT22;4031;49.758;6.120;2023-01-08T00:00:50;8.70;99.90
7972;DHT22;4031;49.758;6.120;2023-01-08T00:03:16;8.70;99.90
7972;DHT22;4031;49.758;6.120;2023-01-08T00:05:42;8.70;99.90
7972;DHT22;4031;49.758;6.120;2023-01-08T00:08:09;8.70;99.90
7972;DHT22;4031;49.758;6.120;2023-01-08T00:10:36;8.70;99.90
7972;DHT22;4031;49.758;6.120;2023-01-08T00:13:03;8.60;99.90
7972;DHT22;4031;49.758;6.120;2023-01-08T00:15:30;8.70;99.90
7972;DHT22;4031;49.758;6.120;2023-01-08T00:17:56;8.60;99.90
7972;DHT22;4031;49.758;6.120;2023-01-08T00:20:23;8.60;99.90
7972;DHT22;4031;49.758;6.120;2023-01-08T00:22:49;8.60;99.90
7972;DHT22;4031;49.758;6.120;2023-01-08T00:25:16;8.60;99.90
7972;DHT22;4031;49.758;6.120;2023-01-08T00:27:43;8.60;99.90
7972;DHT22;4031;49.758;6.120;2023-01-08T00:30:09;8.60;99.90
7972;DHT22;4031;49.758;6.120;2023-01-08T00:32:35;8.50;99.90
7972;DHT22;4031;49.758;6.120;2023-01-08T00:35:01;8.50;99.90
7972;DHT22;4031;49.758;6.120;2023-01-08T00:37:27;8.50;99.90
7972;DHT22;4031;49.758;6.120;2023-01-08T00:39:53;8.50;99.90
7972;DHT22;4031;49.758;6.120;2023-01-08T00:42:19;8.50;99.90
7972;DHT22;4031;49.758;6.120;2023-01-08T00:44:45;8.50;99.90
7972;DHT22;4031;49.758;6.120;2023-01-08T00:47:11;8.50;99.90
7972;DHT22;4031;49.758;6.120;2023-01-08T00:49:37;8.50;99.90
7972;DHT22;4031;49.758;6.120;2023-01-08T00:52:03;8.50;99.90
7972;DHT22;4031;49.758;6.120;2023-01-08T00:54:29;8.50;99.90
7972;DHT22;4031;49.758;6.120;2023-01-08T00:56:55;8.50;99.90
7972;DHT22;4031;49.758;6.120;2023-01-08T00:59:21;8.40;99.90
7972;DHT22;4031;49.758;6.120;2023-01-08T01:01:47;8.40;99.90
7972;DHT22;4031;49.758;6.120;2023-01-08T01:04:14;8.40;99.90
7972;DHT22;4031;49.758;6.120;2023-01-08T01:06:40;8.40;99.90
7972;DHT22;4031;49.758;6.120;2023-01-08T01:09:07;8.40;99.90
7972;DHT22;4031;49.758;6.120;2023-01-08T01:11:33;8.40;99.90
7972;DHT22;4031;49.758;6.120;2023-01-08T01:13:59;8.40;99.90
7972;DHT22;4031;49.758;6.120;2023-01-08T01:16:26;8.50;99.90
7972;DHT22;4031;49.758;6.120;2023-01-08T01:18:52;8.40;99.90
7972;DHT22;4031;49.758;6.120;2023-01-08T01:21:24;8.40;99.90
7972;DHT22;4031;49.758;6.120;2023-01-08T01:23:57;8.40;99.90
7972;DHT22;4031;49.758;6.120;2023-01-08T01:26:25;8.40;99.90
7972;DHT22;4031;49.758;6.120;2023-01-08T01:28:53;8.30;99.90
7972;DHT22;4031;49.758;6.120;2023-01-08T01:31:21;8.30;99.90
7972;DHT22;4031;49.758;6.120;2023-01-08T01:33:48;8.40;99.90
7972;DHT22;4031;49.758;6.120;2023-01-08T01:36:16;8.30;99.90
7972;DHT22;4031;49.758;6.120;2023-01-08T01:38:44;8.30;99.90
7972;DHT22;4031;49.758;6.120;2023-01-08T01:41:43;8.30;99.90
7972;DHT22;4031;49.758;6.120;2023-01-08T01:44:39;8.30;99.90
7972;DHT22;4031;49.758;6.120;2023-01-08T01:55:24;8.30;99.90
7972;DHT22;4031;49.758;6.120;2023-01-08T01:57:57;8.30;99.90
7972;DHT22;4031;49.758;6.120;2023-01-08T02:00:30;8.30;99.90
7972;DHT22;4031;49.758;6.120;2023-01-08T02:02:57;8.30;99.90
7972;DHT22;4031;49.758;6.120;2023-01-08T02:05:30;8.30;99.90
7972;DHT22;4031;49.758;6.120;2023-01-08T02:08:12;8.30;99.90
7972;DHT22;4031;49.758;6.120;2023-01-08T02:13:32;8.30;99.90
7972;DHT22;4031;49.758;6.120;2023-01-08T02:16:15;8.20;99.90
7972;DHT22;4031;49.758;6.120;2023-01-08T02:19:00;8.20;99.90
7972;DHT22;4031;49.758;6.120;2023-01-08T02:21:30;8.20;99.90
7972;DHT22;4031;49.758;6.120;2023-01-08T02:24:19;8.30;99.90
7972;DHT22;4031;49.758;6.120;2023-01-08T02:26:52;8.30;99.90
7972;DHT22;4031;49.758;6.120;2023-01-08T02:29:22;8.20;99.90
7972;DHT22;4031;49.758;6.120;2023-01-08T02:31:50;8.20;99.90
7972;DHT22;4031;49.758;6.120;2023-01-08T02:34:16;8.20;99.90
7972;DHT22;4031;49.758;6.120;2023-01-08T02:36:54;8.20;99.90
7972;DHT22;4031;49.758;6.120;2023-01-08T02:42:41;8.20;99.90
7972;DHT22;4031;49.758;6.120;2023-01-08T02:45:46;8.20;99.90
7972;DHT22;4031;49.758;6.120;2023-01-08T02:48:34;8.20;99.90
7972;DHT22;4031;49.758;6.120;2023-01-08T02:51:06;8.20;99.90
7972;DHT22;4031;49.758;6.120;2023-01-08T02:53:41;8.20;99.90
7972;DHT22;4031;49.758;6.120;2023-01-08T02:56:15;8.10;99.90
7972;DHT22;4031;49.758;6.120;2023-01-08T02:58:43;8.10;99.90
7972;DHT22;4031;49.758;6.120;2023-01-08T03:01:13;8.10;99.90
7972;DHT22;4031;49.758;6.120;2023-01-08T03:03:43;8.10;99.90
7972;DHT22;4031;49.758;6.120;2023-01-08T03:06:13;8.10;99.90
7972;DHT22;4031;49.758;6.120;2023-01-08T03:08:44;8.10;99.90
7972;DHT22;4031;49.758;6.120;2023-01-08T03:11:15;8.10;99.90
7972;DHT22;4031;49.758;6.120;2023-01-08T03:14:01;8.10;99.90
7972;DHT22;4031;49.758;6.120;2023-01-08T03:16:38;8.10;99.90
7972;DHT22;4031;49.758;6.120;2023-01-08T03:19:18;8.00;99.90
7972;DHT22;4031;49.758;6.120;2023-01-08T03:21:49;8.00;99.90
7972;DHT22;4031;49.758;6.120;2023-01-08T03:24:22;8.10;99.90
7972;DHT22;4031;49.758;6.120;2023-01-08T03:26:53;8.00;99.90
7972;DHT22;4031;49.758;6.120;2023-01-08T03:29:21;8.00;99.90
7972;DHT22;4031;49.758;6.120;2023-01-08T03:31:49;8.00;99.90
7972;DHT22;4031;49.758;6.120;2023-01-08T03:34:18;8.00;99.90
7972;DHT22;4031;49.758;6.120;2023-01-08T03:36:48;8.00;99.90
7972;DHT22;4031;49.758;6.120;2023-01-08T03:39:25;7.90;99.90
7972;DHT22;4031;49.758;6.120;2023-01-08T03:41:57;7.90;99.90
7972;DHT22;4031;49.758;6.120;2023-01-08T03:44:24;8.00;99.90
7972;DHT22;4031;49.758;6.120;2023-01-08T03:46:53;7.90;99.90
7972;DHT22;4031;49.758;6.120;2023-01-08T03:49:21;7.90;99.90
7972;DHT22;4031;49.758;6.120;2023-01-08T03:51:49;7.90;99.90
7972;DHT22;4031;49.758;6.120;2023-01-08T03:54:17;7.90;99.90
7972;DHT22;4031;49.758;6.120;2023-01-08T03:56:44;7.90;99.90
7972;DHT22;4031;49.758;6.120;2023-01-08T03:59:14;8.00;99.90
7972;DHT22;4031;49.758;6.120;2023-01-08T04:01:40;7.90;99.90
7972;DHT22;4031;49.758;6.120;2023-01-08T04:04:07;7.90;99.90
7972;DHT22;4031;49.758;6.120;2023-01-08T04:06:33;7.90;99.90
7972;DHT22;4031;49.758;6.120;2023-01-08T04:08:59;8.00;99.90
7972;DHT22;4031;49.758;6.120;2023-01-08T04:11:24;8.00;99.90
7972;DHT22;4031;49.758;6.120;2023-01-08T04:13:50;7.90;99.90
7972;DHT22;4031;49.758;6.120;2023-01-08T04:16:16;8.00;99.90
7972;DHT22;4031;49.758;6.120;2023-01-08T04:18:41;7.90;99.90
7972;DHT22;4031;49.758;6.120;2023-01-08T04:21:07;8.00;99.90
7972;DHT22;4031;49.758;6.120;2023-01-08T04:23:33;8.00;99.90
7972;DHT22;4031;49.758;6.120;2023-01-08T04:25:58;8.00;99.90
7972;DHT22;4031;49.758;6.120;2023-01-08T04:28:24;8.00;99.90
7972;DHT22;4031;49.758;6.120;2023-01-08T04:30:50;8.00;99.90
7972;DHT22;4031;49.758;6.120;2023-01-08T04:33:16;8.00;99.90
7972;DHT22;4031;49.758;6.120;2023-01-08T04:35:41;8.00;99.90
7972;DHT22;4031;49.758;6.120;2023-01-08T04:38:07;8.00;99.90
7972;DHT22;4031;49.758;6.120;2023-01-08T04:40:33;8.00;99.90
7972;DHT22;4031;49.758;6.120;2023-01-08T04:42:59;8.00;99.90
7972;DHT22;4031;49.758;6.120;2023-01-08T04:45:24;7.90;99.90
7972;DHT22;4031;49.758;6.120;2023-01-08T04:47:57;8.00;99.90
7972;DHT22;4031;49.758;6.120;2023-01-08T04:50:24;7.90;99.90
7972;DHT22;4031;49.758;6.120;2023-01-08T04:52:51;7.90;99.90
7972;DHT22;4031;49.758;6.120;2023-01-08T04:55:16;7.90;99.90
7972;DHT22;4031;49.758;6.120;2023-01-08T04:57:42;7.90;99.90
7972;DHT22;4031;49.758;6.120;2023-01-08T05:00:08;7.90;99.90
7972;DHT22;4031;49.758;6.120;2023-01-08T05:02:34;7.90;99.90
7972;DHT22;4031;49.758;6.120;2023-01-08T05:05:00;7.90;99.90
7972;DHT22;4031;49.758;6.120;2023-01-08T05:07:26;7.90;99.90
7972;DHT22;4031;49.758;6.120;2023-01-08T05:09:51;7.90;99.90
7972;DHT22;4031;49.758;6.120;2023-01-08T05:12:17;7.90;99.90
7972;DHT22;4031;49.758;6.120;2023-01-08T05:14:43;7.90;99.90
7972;DHT22;4031;49.758;6.120;2023-01-08T05:17:09;7.90;99.90
7972;DHT22;4031;49.758;6.120;2023-01-08T05:19:35;7.90;99.90
7972;DHT22;4031;49.758;6.120;2023-01-08T05:22:00;7.90;99.90
7972;DHT22;4031;49.758;6.120;2023-01-08T05:24:26;7.90;99.90
7972;DHT22;4031;49.758;6.120;2023-01-08T05:26:52;8.00;99.90
7972;DHT22;4031;49.758;6.120;2023-01-08T05:29:17;8.00;99.90
7972;DHT22;4031;49.758;6.120;2023-01-08T05:31:44;7.90;99.90
7972;DHT22;4031;49.758;6.120;2023-01-08T05:34:10;8.00;99.90
7972;DHT22;4031;49.758;6.120;2023-01-08T05:36:35;7.90;99.90
7972;DHT22;4031;49.758;6.120;2023-01-08T05:39:01;8.00;99.90
7972;DHT22;4031;49.758;6.120;2023-01-08T05:41:27;7.90;99.90
7972;DHT22;4031;49.758;6.120;2023-01-08T05:43:54;7.90;99.90
7972;DHT22;4031;49.758;6.120;2023-01-08T05:46:19;8.00;99.90
7972;DHT22;4031;49.758;6.120;2023-01-08T05:48:45;8.00;99.90
7972;DHT22;4031;49.758;6.120;2023-01-08T05:51:11;8.00;99.90
7972;DHT22;4031;49.758;6.120;2023-01-08T05:53:36;8.00;99.90
7972;DHT22;4031;49.758;6.120;2023-01-08T05:56:07;8.00;99.90
7972;DHT22;4031;49.758;6.120;2023-01-08T05:58:35;8.00;99.90
7972;DHT22;4031;49.758;6.120;2023-01-08T06:01:03;8.00;99.90
7972;DHT22;4031;49.758;6.120;2023-01-08T06:03:37;8.00;99.90
7972;DHT22;4031;49.758;6.120;2023-01-08T06:06:04;8.00;99.90
7972;DHT22;4031;49.758;6.120;2023-01-08T06:08:32;8.00;99.90
7972;DHT22;4031;49.758;6.120;2023-01-08T06:11:03;7.90;99.90
7972;DHT22;4031;49.758;6.120;2023-01-08T06:13:31;7.90;99.90
7972;DHT22;4031;49.758;6.120;2023-01-08T06:15:58;7.90;99.90
7972;DHT22;4031;49.758;6.120;2023-01-08T06:18:26;7.90;99.90
7972;DHT22;4031;49.758;6.120;2023-01-08T06:20:52;7.90;99.90
7972;DHT22;4031;49.758;6.120;2023-01-08T06:23:18;7.90;99.90
7972;DHT22;4031;49.758;6.120;2023-01-08T06:25:44;7.90;99.90
7972;DHT22;4031;49.758;6.120;2023-01-08T06:28:16;7.80;99.90
7972;DHT22;4031;49.758;6.120;2023-01-08T06:30:42;7.80;99.90
7972;DHT22;4031;49.758;6.120;2023-01-08T06:33:07;7.80;99.90
7972;DHT22;4031;49.758;6.120;2023-01-08T06:35:33;7.80;99.90
7972;DHT22;4031;49.758;6.120;2023-01-08T06:37:59;7.80;99.90
7972;DHT22;4031;49.758;6.120;2023-01-08T06:40:24;7.80;99.90
7972;DHT22;4031;49.758;6.120;2023-01-08T06:42:51;7.80;99.90
7972;DHT22;4031;49.758;6.120;2023-01-08T06:45:17;7.80;99.90
7972;DHT22;4031;49.758;6.120;2023-01-08T06:47:43;7.80;99.90
7972;DHT22;4031;49.758;6.120;2023-01-08T06:50:08;7.70;99.90
7972;DHT22;4031;49.758;6.120;2023-01-08T06:52:35;7.70;99.90
7972;DHT22;4031;49.758;6.120;2023-01-08T06:55:00;7.80;99.90
7972;DHT22;4031;49.758;6.120;2023-01-08T06:57:26;7.70;99.90
7972;DHT22;4031;49.758;6.120;2023-01-08T06:59:52;7.70;99.90
7972;DHT22;4031;49.758;6.120;2023-01-08T07:02:18;7.70;99.90
7972;DHT22;4031;49.758;6.120;2023-01-08T07:04:43;7.70;99.90
7972;DHT22;4031;49.758;6.120;2023-01-08T07:07:13;7.70;99.90
7972;DHT22;4031;49.758;6.120;2023-01-08T07:09:41;7.70;99.90
7972;DHT22;4031;49.758;6.120;2023-01-08T07:12:11;7.80;99.90
7972;DHT22;4031;49.758;6.120;2023-01-08T07:14:37;7.70;99.90
7972;DHT22;4031;49.758;6.120;2023-01-08T07:17:03;7.70;99.90
7972;DHT22;4031;49.758;6.120;2023-01-08T07:19:29;7.70;99.90
7972;DHT22;4031;49.758;6.120;2023-01-08T07:21:55;7.70;99.90
7972;DHT22;4031;49.758;6.120;2023-01-08T07:24:21;7.70;99.90
7972;DHT22;4031;49.758;6.120;2023-01-08T07:26:47;7.70;99.90
7972;DHT22;4031;49.758;6.120;2023-01-08T07:29:13;7.70;99.90
7972;DHT22;4031;49.758;6.120;2023-01-08T07:31:38;7.70;99.90
7972;DHT22;4031;49.758;6.120;2023-01-08T07:34:04;7.70;99.90
7972;DHT22;4031;49.758;6.120;2023-01-08T07:36:30;7.70;99.90
7972;DHT22;4031;49.758;6.120;2023-01-08T07:38:56;7.70;99.90
7972;DHT22;4031;49.758;6.120;2023-01-08T07:41:22;7.70;99.90
7972;DHT22;4031;49.758;6.120;2023-01-08T07:43:47;7.70;99.90
7972;DHT22;4031;49.758;6.120;2023-01-08T07:46:14;7.80;99.90
7972;DHT22;4031;49.758;6.120;2023-01-08T07:48:40;7.70;99.90
7972;DHT22;4031;49.758;6.120;2023-01-08T07:51:07;7.70;99.90
7972;DHT22;4031;49.758;6.120;2023-01-08T07:53:34;7.70;99.90
7972;DHT22;4031;49.758;6.120;2023-01-08T07:56:02;7.70;99.90
7972;DHT22;4031;49.758;6.120;2023-01-08T07:58:29;7.70;99.90
7972;DHT22;4031;49.758;6.120;2023-01-08T08:00:55;7.70;99.90
7972;DHT22;4031;49.758;6.120;2023-01-08T08:03:21;7.60;99.90
7972;DHT22;4031;49.758;6.120;2023-01-08T08:05:47;7.70;99.90
7972;DHT22;4031;49.758;6.120;2023-01-08T08:08:13;7.60;99.90
7972;DHT22;4031;49.758;6.120;2023-01-08T08:10:39;7.70;99.90
7972;DHT22;4031;49.758;6.120;2023-01-08T08:13:06;7.70;99.90
7972;DHT22;4031;49.758;6.120;2023-01-08T08:15:33;7.70;99.90
7972;DHT22;4031;49.758;6.120;2023-01-08T08:17:59;7.60;99.90
7972;DHT22;4031;49.758;6.120;2023-01-08T08:20:25;7.60;99.90
7972;DHT22;4031;49.758;6.120;2023-01-08T08:22:51;7.60;99.90
7972;DHT22;4031;49.758;6.120;2023-01-08T08:25:17;7.60;99.90
7972;DHT22;4031;49.758;6.120;2023-01-08T08:27:43;7.60;99.90
7972;DHT22;4031;49.758;6.120;2023-01-08T08:30:10;7.60;99.90
7972;DHT22;4031;49.758;6.120;2023-01-08T08:32:37;7.60;99.90
7972;DHT22;4031;49.758;6.120;2023-01-08T08:35:03;7.60;99.90
7972;DHT22;4031;49.758;6.120;2023-01-08T08:37:29;7.70;99.90
7972;DHT22;4031;49.758;6.120;2023-01-08T08:39:55;7.80;99.90
7972;DHT22;4031;49.758;6.120;2023-01-08T08:42:21;7.70;99.90
7972;DHT22;4031;49.758;6.120;2023-01-08T08:44:47;7.70;99.90
7972;DHT22;4031;49.758;6.120;2023-01-08T08:47:13;7.70;99.90
7972;DHT22;4031;49.758;6.120;2023-01-08T08:49:39;7.70;99.90
7972;DHT22;4031;49.758;6.120;2023-01-08T08:52:05;7.80;99.90
7972;DHT22;4031;49.758;6.120;2023-01-08T08:54:31;7.80;99.90
7972;DHT22;4031;49.758;6.120;2023-01-08T08:56:57;7.80;99.90
7972;DHT22;4031;49.758;6.120;2023-01-08T08:59:22;7.80;99.90
7972;DHT22;4031;49.758;6.120;2023-01-08T09:01:48;7.80;99.90
7972;DHT22;4031;49.758;6.120;2023-01-08T09:04:14;7.70;99.90
7972;DHT22;4031;49.758;6.120;2023-01-08T09:06:39;7.70;99.90
7972;DHT22;4031;49.758;6.120;2023-01-08T09:09:05;7.80;99.90
7972;DHT22;4031;49.758;6.120;2023-01-08T09:11:31;7.70;99.90
7972;DHT22;4031;49.758;6.120;2023-01-08T09:13:57;7.70;99.90
7972;DHT22;4031;49.758;6.120;2023-01-08T09:16:22;7.70;99.90
7972;DHT22;4031;49.758;6.120;2023-01-08T09:18:48;7.70;99.90
7972;DHT22;4031;49.758;6.120;2023-01-08T09:21:14;7.80;99.90
7972;DHT22;4031;49.758;6.120;2023-01-08T09:23:40;7.70;99.90
7972;DHT22;4031;49.758;6.120;2023-01-08T09:26:06;7.80;99.90
7972;DHT22;4031;49.758;6.120;2023-01-08T09:28:32;7.80;99.90
7972;DHT22;4031;49.758;6.120;2023-01-08T09:31:02;7.90;99.90
7972;DHT22;4031;49.758;6.120;2023-01-08T09:33:29;7.90;99.90
7972;DHT22;4031;49.758;6.120;2023-01-08T09:35:55;7.90;99.90
7972;DHT22;4031;49.758;6.120;2023-01-08T09:38:21;7.90;99.90
7972;DHT22;4031;49.758;6.120;2023-01-08T09:40:54;8.00;99.90
7972;DHT22;4031;49.758;6.120;2023-01-08T09:43:31;8.00;99.90
7972;DHT22;4031;49.758;6.120;2023-01-08T09:46:01;8.00;99.90
7972;DHT22;4031;49.758;6.120;2023-01-08T09:48:31;8.00;99.90
7972;DHT22;4031;49.758;6.120;2023-01-08T09:50:59;8.00;99.90
7972;DHT22;4031;49.758;6.120;2023-01-08T09:53:25;8.10;99.90
7972;DHT22;4031;49.758;6.120;2023-01-08T09:56:02;8.00;99.90
7972;DHT22;4031;49.758;6.120;2023-01-08T09:58:36;8.00;99.90
7972;DHT22;4031;49.758;6.120;2023-01-08T10:01:03;8.10;99.90
7972;DHT22;4031;49.758;6.120;2023-01-08T10:03:42;8.10;99.90
7972;DHT22;4031;49.758;6.120;2023-01-08T10:06:14;8.30;99.90
7972;DHT22;4031;49.758;6.120;2023-01-08T10:08:41;8.70;99.90
7972;DHT22;4031;49.758;6.120;2023-01-08T10:11:08;9.00;99.90
7972;DHT22;4031;49.758;6.120;2023-01-08T10:13:37;9.00;99.90
7972;DHT22;4031;49.758;6.120;2023-01-08T10:16:09;9.10;99.90
7972;DHT22;4031;49.758;6.120;2023-01-08T10:18:37;8.90;99.90
7972;DHT22;4031;49.758;6.120;2023-01-08T10:21:05;8.80;99.90
7972;DHT22;4031;49.758;6.120;2023-01-08T10:23:30;8.60;99.90
7972;DHT22;4031;49.758;6.120;2023-01-08T10:26:01;8.50;99.90
7972;DHT22;4031;49.758;6.120;2023-01-08T10:28:29;8.40;99.90
7972;DHT22;4031;49.758;6.120;2023-01-08T10:31:02;8.40;99.90
7972;DHT22;4031;49.758;6.120;2023-01-08T10:33:37;8.40;99.90
7972;DHT22;4031;49.758;6.120;2023-01-08T10:36:07;8.30;99.90
7972;DHT22;4031;49.758;6.120;2023-01-08T10:38:50;8.30;99.90
7972;DHT22;4031;49.758;6.120;2023-01-08T10:41:20;8.20;99.90
7972;DHT22;4031;49.758;6.120;2023-01-08T10:44:02;8.20;99.90
7972;DHT22;4031;49.758;6.120;2023-01-08T10:49:03;8.20;99.90
7972;DHT22;4031;49.758;6.120;2023-01-08T10:51:31;8.20;99.90
7972;DHT22;4031;49.758;6.120;2023-01-08T10:59:48;8.00;99.90
7972;DHT22;4031;49.758;6.120;2023-01-08T11:02:33;8.00;99.90
7972;DHT22;4031;49.758;6.120;2023-01-08T11:05:00;8.00;99.90
7972;DHT22;4031;49.758;6.120;2023-01-08T11:07:27;8.00;99.90
7972;DHT22;4031;49.758;6.120;2023-01-08T11:09:53;8.00;99.90
7972;DHT22;4031;49.758;6.120;2023-01-08T11:15:31;7.90;99.90
7972;DHT22;4031;49.758;6.120;2023-01-08T11:18:05;7.90;99.90
7972;DHT22;4031;49.758;6.120;2023-01-08T11:20:37;8.00;99.90
7972;DHT22;4031;49.758;6.120;2023-01-08T11:23:29;8.00;99.90
7972;DHT22;4031;49.758;6.120;2023-01-08T11:26:13;8.10;99.90
7972;DHT22;4031;49.758;6.120;2023-01-08T11:28:55;8.20;99.90
7972;DHT22;4031;49.758;6.120;2023-01-08T11:31:46;8.30;99.90
7972;DHT22;4031;49.758;6.120;2023-01-08T11:37:20;8.40;99.90
7972;DHT22;4031;49.758;6.120;2023-01-08T11:39:51;8.30;99.90
7972;DHT22;4031;49.758;6.120;2023-01-08T11:42:43;8.30;99.90
7972;DHT22;4031;49.758;6.120;2023-01-08T11:52:03;8.40;99.90
7972;DHT22;4031;49.758;6.120;2023-01-08T11:58:13;8.30;99.90
7972;DHT22;4031;49.758;6.120;2023-01-08T12:00:57;8.40;99.90
7972;DHT22;4031;49.758;6.120;2023-01-08T12:03:44;8.40;99.90
7972;DHT22;4031;49.758;6.120;2023-01-08T12:06:15;8.50;99.90
7972;DHT22;4031;49.758;6.120;2023-01-08T12:17:53;8.90;99.90
7972;DHT22;4031;49.758;6.120;2023-01-08T12:20:37;8.80;99.90
7972;DHT22;4031;49.758;6.120;2023-01-08T12:37:38;8.80;99.90
7972;DHT22;4031;49.758;6.120;2023-01-08T12:40:26;8.70;99.90
7972;DHT22;4031;49.758;6.120;2023-01-08T12:43:16;8.60;99.90
7972;DHT22;4031;49.758;6.120;2023-01-08T12:45:45;8.50;99.90
7972;DHT22;4031;49.758;6.120;2023-01-08T12:48:28;8.50;99.90
7972;DHT22;4031;49.758;6.120;2023-01-08T12:51:06;8.50;99.90
7972;DHT22;4031;49.758;6.120;2023-01-08T13:02:56;8.70;99.90
7972;DHT22;4031;49.758;6.120;2023-01-08T13:08:04;8.50;99.90
7972;DHT22;4031;49.758;6.120;2023-01-08T13:10:35;8.50;99.90
7972;DHT22;4031;49.758;6.120;2023-01-08T13:13:22;8.60;99.90
7972;DHT22;4031;49.758;6.120;2023-01-08T13:18:35;9.00;99.90
7972;DHT22;4031;49.758;6.120;2023-01-08T13:21:03;9.10;99.90
7972;DHT22;4031;49.758;6.120;2023-01-08T13:23:32;9.10;99.90
7972;DHT22;4031;49.758;6.120;2023-01-08T13:26:04;9.10;99.90
7972;DHT22;4031;49.758;6.120;2023-01-08T13:33:50;9.10;99.90
7972;DHT22;4031;49.758;6.120;2023-01-08T13:36:25;9.10;99.90
7972;DHT22;4031;49.758;6.120;2023-01-08T13:41:43;9.10;99.90
7972;DHT22;4031;49.758;6.120;2023-01-08T13:44:27;9.10;99.90
7972;DHT22;4031;49.758;6.120;2023-01-08T13:46:59;9.10;99.90
7972;DHT22;4031;49.758;6.120;2023-01-08T13:49:42;9.20;99.90
7972;DHT22;4031;49.758;6.120;2023-01-08T13:52:26;9.30;99.90
7972;DHT22;4031;49.758;6.120;2023-01-08T13:55:15;9.40;99.90
7972;DHT22;4031;49.758;6.120;2023-01-08T13:57:45;9.30;99.90
7972;DHT22;4031;49.758;6.120;2023-01-08T14:00:28;9.10;99.90
7972;DHT22;4031;49.758;6.120;2023-01-08T14:02:56;9.10;99.90
7972;DHT22;4031;49.758;6.120;2023-01-08T14:05:30;9.00;99.90
7972;DHT22;4031;49.758;6.120;2023-01-08T14:07:59;9.00;99.90
7972;DHT22;4031;49.758;6.120;2023-01-08T14:10:29;9.00;99.90
7972;DHT22;4031;49.758;6.120;2023-01-08T14:13:11;9.00;99.90
7972;DHT22;4031;49.758;6.120;2023-01-08T14:15:39;8.90;99.90
7972;DHT22;4031;49.758;6.120;2023-01-08T14:18:05;9.00;99.90
7972;DHT22;4031;49.758;6.120;2023-01-08T14:20:36;9.20;99.90
7972;DHT22;4031;49.758;6.120;2023-01-08T14:23:32;9.20;99.90
7972;DHT22;4031;49.758;6.120;2023-01-08T14:26:04;9.20;99.90
7972;DHT22;4031;49.758;6.120;2023-01-08T14:28:32;9.30;99.90
7972;DHT22;4031;49.758;6.120;2023-01-08T14:30:59;9.30;99.90
7972;DHT22;4031;49.758;6.120;2023-01-08T14:33:34;9.20;99.90
7972;DHT22;4031;49.758;6.120;2023-01-08T14:36:03;9.30;99.90
7972;DHT22;4031;49.758;6.120;2023-01-08T14:38:30;9.50;99.90
7972;DHT22;4031;49.758;6.120;2023-01-08T14:41:02;9.70;99.90
7972;DHT22;4031;49.758;6.120;2023-01-08T14:43:39;9.80;99.90
7972;DHT22;4031;49.758;6.120;2023-01-08T14:46:25;9.90;99.90
7972;DHT22;4031;49.758;6.120;2023-01-08T14:48:52;9.80;99.90
7972;DHT22;4031;49.758;6.120;2023-01-08T14:51:25;9.50;99.90
7972;DHT22;4031;49.758;6.120;2023-01-08T14:54:03;9.30;99.90
7972;DHT22;4031;49.758;6.120;2023-01-08T14:56:32;9.10;99.90
7972;DHT22;4031;49.758;6.120;2023-01-08T14:58:59;8.90;99.90
7972;DHT22;4031;49.758;6.120;2023-01-08T15:01:27;8.80;99.90
7972;DHT22;4031;49.758;6.120;2023-01-08T15:04:07;8.70;99.90
7972;DHT22;4031;49.758;6.120;2023-01-08T15:06:39;8.60;99.90
7972;DHT22;4031;49.758;6.120;2023-01-08T15:12:00;8.50;99.90
7972;DHT22;4031;49.758;6.120;2023-01-08T15:14:30;8.40;99.90
7972;DHT22;4031;49.758;6.120;2023-01-08T15:17:10;8.40;99.90
7972;DHT22;4031;49.758;6.120;2023-01-08T15:19:50;8.40;99.90
7972;DHT22;4031;49.758;6.120;2023-01-08T15:22:25;8.40;99.90
7972;DHT22;4031;49.758;6.120;2023-01-08T15:25:01;8.40;99.90
7972;DHT22;4031;49.758;6.120;2023-01-08T15:27:29;8.40;99.90
7972;DHT22;4031;49.758;6.120;2023-01-08T15:30:03;8.40;99.90
7972;DHT22;4031;49.758;6.120;2023-01-08T15:32:34;8.40;99.90
7972;DHT22;4031;49.758;6.120;2023-01-08T15:35:14;8.40;99.90
7972;DHT22;4031;49.758;6.120;2023-01-08T15:37:41;8.30;99.90
7972;DHT22;4031;49.758;6.120;2023-01-08T15:40:08;8.30;99.90
7972;DHT22;4031;49.758;6.120;2023-01-08T15:42:35;8.20;99.90
7972;DHT22;4031;49.758;6.120;2023-01-08T15:45:27;8.30;99.90
7972;DHT22;4031;49.758;6.120;2023-01-08T15:47:54;8.30;99.90
7972;DHT22;4031;49.758;6.120;2023-01-08T15:50:20;8.20;99.90
7972;DHT22;4031;49.758;6.120;2023-01-08T15:52:46;8.20;99.90
7972;DHT22;4031;49.758;6.120;2023-01-08T15:55:17;8.10;99.90
7972;DHT22;4031;49.758;6.120;2023-01-08T15:57:44;8.10;99.90
7972;DHT22;4031;49.758;6.120;2023-01-08T16:00:14;8.10;99.90
7972;DHT22;4031;49.758;6.120;2023-01-08T16:02:45;8.10;99.90
7972;DHT22;4031;49.758;6.120;2023-01-08T16:05:13;8.00;99.90
7972;DHT22;4031;49.758;6.120;2023-01-08T16:07:39;8.00;99.90
7972;DHT22;4031;49.758;6.120;2023-01-08T16:10:05;8.00;99.90
7972;DHT22;4031;49.758;6.120;2023-01-08T16:12:32;7.90;99.90
7972;DHT22;4031;49.758;6.120;2023-01-08T16:14:57;7.80;99.90
7972;DHT22;4031;49.758;6.120;2023-01-08T16:17:23;7.70;99.90
7972;DHT22;4031;49.758;6.120;2023-01-08T16:19:49;7.60;99.90
7972;DHT22;4031;49.758;6.120;2023-01-08T16:22:14;7.50;99.90
7972;DHT22;4031;49.758;6.120;2023-01-08T16:24:40;7.40;99.90
7972;DHT22;4031;49.758;6.120;2023-01-08T16:27:06;7.40;99.90
7972;DHT22;4031;49.758;6.120;2023-01-08T16:29:33;7.30;99.90
7972;DHT22;4031;49.758;6.120;2023-01-08T16:31:59;7.30;99.90
7972;DHT22;4031;49.758;6.120;2023-01-08T16:34:25;7.30;99.90
7972;DHT22;4031;49.758;6.120;2023-01-08T16:36:50;7.30;99.90
7972;DHT22;4031;49.758;6.120;2023-01-08T16:39:16;7.40;99.90
7972;DHT22;4031;49.758;6.120;2023-01-08T16:41:42;7.50;99.90
7972;DHT22;4031;49.758;6.120;2023-01-08T16:44:20;7.50;99.90
7972;DHT22;4031;49.758;6.120;2023-01-08T16:46:47;7.60;99.90
7972;DHT22;4031;49.758;6.120;2023-01-08T16:49:13;7.60;99.90
7972;DHT22;4031;49.758;6.120;2023-01-08T16:51:39;7.70;99.90
7972;DHT22;4031;49.758;6.120;2023-01-08T16:54:05;7.80;99.90
7972;DHT22;4031;49.758;6.120;2023-01-08T16:56:31;7.90;99.90
7972;DHT22;4031;49.758;6.120;2023-01-08T16:58:57;7.90;99.90
7972;DHT22;4031;49.758;6.120;2023-01-08T17:01:22;7.90;99.90
7972;DHT22;4031;49.758;6.120;2023-01-08T17:03:49;8.00;99.90
7972;DHT22;4031;49.758;6.120;2023-01-08T17:06:15;8.00;99.90
7972;DHT22;4031;49.758;6.120;2023-01-08T17:08:41;8.10;99.90
7972;DHT22;4031;49.758;6.120;2023-01-08T17:11:25;8.00;99.90
7972;DHT22;4031;49.758;6.120;2023-01-08T17:13:51;8.10;99.90
7972;DHT22;4031;49.758;6.120;2023-01-08T17:16:17;8.10;99.90
7972;DHT22;4031;49.758;6.120;2023-01-08T17:18:44;8.10;99.90
7972;DHT22;4031;49.758;6.120;2023-01-08T17:21:12;8.10;99.90
7972;DHT22;4031;49.758;6.120;2023-01-08T17:23:38;8.00;99.90
7972;DHT22;4031;49.758;6.120;2023-01-08T17:26:09;8.00;99.90
7972;DHT22;4031;49.758;6.120;2023-01-08T17:28:36;8.00;99.90
7972;DHT22;4031;49.758;6.120;2023-01-08T17:31:10;8.00;99.90
7972;DHT22;4031;49.758;6.120;2023-01-08T17:33:38;7.90;99.90
7972;DHT22;4031;49.758;6.120;2023-01-08T17:36:19;7.90;99.90
7972;DHT22;4031;49.758;6.120;2023-01-08T17:38:47;7.90;99.90
7972;DHT22;4031;49.758;6.120;2023-01-08T17:41:16;7.80;99.90
7972;DHT22;4031;49.758;6.120;2023-01-08T17:44:02;7.80;99.90
7972;DHT22;4031;49.758;6.120;2023-01-08T17:46:34;7.80;99.90
7972;DHT22;4031;49.758;6.120;2023-01-08T17:49:02;7.70;99.90
7972;DHT22;4031;49.758;6.120;2023-01-08T17:51:28;7.60;99.90
7972;DHT22;4031;49.758;6.120;2023-01-08T17:53:56;7.60;99.90
7972;DHT22;4031;49.758;6.120;2023-01-08T17:56:22;7.50;99.90
7972;DHT22;4031;49.758;6.120;2023-01-08T17:58:49;7.50;99.90
7972;DHT22;4031;49.758;6.120;2023-01-08T18:01:14;7.50;99.90